Main page
METAR-TAF:

METAR-TAF

Airports :

Dubai International Airport

Dubai, United Arab Emirates

latitude: 25-15-10N, longitude: 055-21-52E, elevation: 8 m

Current weather observation

The report was made 18 minutes ago, at 05:00 UTC
Wind 5 kt from the East/Northeast, varying between North/Northeast and East/Southeast
Temperature 23°C
Humidity 61%
Pressure 1020 hPa
Visibility 10 km or more
no clouds below 1500 m and no cumulonimbus

METAR: OMDB 060500Z 07005KT 020V110 CAVOK 23/15 Q1020 NOSIG

Time: 09:18 (05:18 UTC)

Forecast

The report was made 6 hours and 24 minutes ago, at 22:54 UTC
Forecast valid from 06 at 00 UTC to 07 at 06 UTC
Wind 5 kt from the East
Visibility: 8000 m
Becoming
from 06 at 09 UTC to 06 at 11 UTC
Wind 10 kt from the North
Becoming
from 06 at 14 UTC to 06 at 16 UTC
Wind 7 kt from the East

TAF: OMDB 052254Z 0600/0706 08005KT 8000 NSC BECMG 0609/0611 36010KT BECMG 0614/0616 09007KT

Weather observations and forecasts of more than 4000 airports (METAR and TAF reports).

The available stations are represented by yellow and red dots on the map.

Hover mouse over dot to see the name of the station.

Then click to see weather observations and forecasts.

To change the map : click on the green buttons with a black cross to zoom in, on the green button with a dash to zoom out, or on the green arrows for adjacent maps.


METAR-TAF: